ADDS METAR Data INFO
IDs: Format: Raw Decoded Include TAF

Data at: 1537 UTC 25 Feb 2018

KEUL 251456Z AUTO 08005KT 10SM OVC070 M05/M07 A3016 RMK AO2 SLP241 T10501072 55003 FZRANO
KEUL 251356Z AUTO 09007KT 10SM SCT060 SCT095 OVC120 M06/M08 A3015 RMK AO2 SLP238 T10611083 FZRANO
KEUL 251256Z AUTO 06004KT 10SM BKN090 M08/M10 A3017 RMK AO2 SLP242 T10781100 FZRANO
KEUL 251156Z AUTO 11007KT 10SM FEW060 OVC100 M08/M09 A3017 RMK AO2 SLP242 70005 T10781094 11050 21128 56004 FZRANO
KEUL 251056Z AUTO 09007KT 10SM SCT060 M12/M13 A3017 RMK AO2 SLP248 T11171133 FZRANO
KEUL 250956Z AUTO 07005KT 10SM FEW120 M12/M14 A3016 RMK AO2 SLP246 T11221144 FZRANO
KEUL 250856Z AUTO 08003KT 10SM CLR M11/M13 A3018 RMK AO2 SLP250 T11061128 51013 FZRANO
KEUL 250756Z AUTO 00000KT 10SM CLR M09/M12 A3018 RMK AO2 SLP248 T10941117 FZRANO
KEUL 250656Z AUTO 00000KT 10SM CLR M07/M10 A3015 RMK AO2 SLP239 T10721100 400281072 FZRANO
KEUL 250556Z AUTO 29007KT 10SM CLR M05/M08 A3014 RMK AO2 SLP233 60000 T10501078 10006 21061 51021 FZRANO
KEUL 250456Z AUTO 27006KT 10SM CLR M05/M07 A3013 RMK AO2 SLP229 T10501072 FZRANO
KEUL 250356Z AUTO 26005KT 10SM CLR M05/M07 A3010 RMK AO2 SLP220 T10501067 FZRANO
KEUL 250256Z AUTO 00000KT 10SM SCT080 M04/M05 A3007 RMK AO2 SLP209 60000 T10391050 53028 FZRANO
KEUL 250156Z AUTO 24004KT 10SM FEW055 M02/M06 A3004 RMK AO2 SLP196 T10221056 FZRANO
KEUL 250056Z AUTO 28004KT 10SM FEW075 BKN095 01/M03 A3001 RMK AO2 SNE14 SLP184 P0000 T00061028 FZRANO
KEUL 250024Z AUTO 32008KT 10SM FEW003 00/M03 A3000 RMK AO2 SNE14 P0000 FZRANO
KEUL 250009Z AUTO 32011KT 4SM -SN BR FEW003 SCT007 BKN012 01/M02 A2999 RMK AO2 P0000 FZRANO
KEUL 250005Z AUTO 33012KT 1 1/4SM -SN BR FEW003 BKN007 BKN012 00/M01 A2999 RMK AO2 P0000 FZRANO
KEUL 250001Z AUTO 32013G22KT 1SM -SN BR BKN005 BKN011 OVC034 01/M01 A2998 RMK AO2 CIG 002V008 P0000 FZRANO RVRNO
KEUL 242356Z AUTO 30014G22KT 1 1/4SM -SN BR SCT007 BKN011 OVC060 01/M01 A2998 RMK AO2 RAB38E44SNB44 SLP175 P0000 60005 T00061011 10028 21017 53027 FZRANO
KEUL 242352Z AUTO 29015G22KT 1SM -SN BR SCT007 BKN011 OVC060 01/M01 A2998 RMK AO2 RAB38E44SNB44 P0000 FZRANO RVRNO
KEUL 242349Z AUTO 28012KT 3/4SM -SN BR SCT007 BKN011 BKN034 01/M01 A2998 RMK AO2 RAB38E44SNB44 P0000 FZRANO RVRNO
KEUL 242346Z AUTO 28012KT 1 1/4SM -SN BR SCT007 SCT013 BKN023 01/M02 A2998 RMK AO2 RAB38E44SNB44 P0000 FZRANO
KEUL 242231Z AUTO 10SM FEW011 OVC080 00/M02 A2994 RMK AO2 UPB19E25SNE19 P0000 FZRANO $
KEUL 242217Z AUTO 9SM -SN BKN011 OVC070 00/M02 A2993 RMK AO2 P0000 FZRANO $
KEUL 242205Z AUTO 04003KT 2 1/2SM -SN BR BKN011 BKN017 OVC028 00/M02 A2993 RMK AO2 P0000 FZRANO
KEUL 242156Z AUTO 07006KT 1 1/4SM -SN BR FEW011 BKN017 OVC042 00/M02 A2992 RMK AO2 TSB32E53RAB03E05SNB05 SLP154 P0002 T00001017 FZRANO
KEUL 242154Z AUTO 07006KT 1 1/2SM -SN BR FEW009 BKN024 OVC040 00/M02 A2992 RMK AO2 TSB32E53RAB03E05SNB05 P0002 FZRANO
KEUL 242151Z AUTO 09004KT 1 3/4SM VCTS -SN BR SCT017 BKN024 OVC040 00/M02 A2992 RMK AO2 TSB32RAB03E05SNB05 P0002 FZRANO
KEUL 242138Z AUTO 00000KT 4SM VCTS -SN BR FEW009 SCT020 OVC041 M01/M02 A2991 RMK AO2 TSB32RAB03E05SNB05 P0001 FZRANO
KEUL 242132Z AUTO 07003KT 3SM VCTS -SN BR SCT011 BKN021 OVC043 M01/M02 A2991 RMK AO2 TSB32RAB03E05SNB05 P0000 FZRANO
KEUL 242123Z AUTO 09010KT 3SM -SN BR FEW011 BKN032 OVC050 M01/M02 A2990 RMK AO2 RAB03E05SNB05 P0000 FZRANO
KEUL 242111Z AUTO 07013KT 2 1/2SM -SN FEW011 SCT019 BKN034 00/M03 A2990 RMK AO2 RAB03E05SNB05 P0000 FZRANO
KEUL 242056Z AUTO 07014KT 10SM FEW031 SCT070 01/M03 A2990 RMK AO2 SLP146 60003 T00061028 58024 FZRANO
KEUL 241956Z AUTO 09013KT 10SM SCT026 SCT032 OVC043 01/M02 A2994 RMK AO2 UPB47E52SNE47 SLP159 P0002 T00061017 FZRANO
KEUL 241920Z AUTO 09010KT 3SM -SN BR FEW004 SCT010 OVC025 M01/M02 A2996 RMK AO2 P0001 FZRANO
KEUL 241907Z AUTO 09009KT 2SM -SN BR FEW004 BKN010 OVC025 M01/M03 A2996 RMK AO2 CIG 006V014 P0000 FZRANO
KEUL 241901Z AUTO 10008KT 1SM -SN BR FEW004 BKN010 OVC021 M01/M03 A2997 RMK AO2 CIG 007V013 P0000 FZRANO RVRNO
KEUL 241856Z AUTO 09009KT 3/4SM -SN BR BKN010 BKN016 OVC022 M01/M03 A2996 RMK AO2 SLP169 P0001 T10111028 FZRANO RVRNO
KEUL 241853Z AUTO 09013G16KT 1/2SM -SN FZFG BKN010 BKN016 OVC022 M01/M03 A2996 RMK AO2 CIG 008V014 P0001 FZRANO RVRNO
KEUL 241846Z AUTO 09010G16KT 1SM -SN BR SCT008 BKN013 OVC028 M02/M03 A2996 RMK AO2 P0001 FZRANO RVRNO
KEUL 241843Z AUTO 10012KT 1SM -SN BR SCT010 BKN015 OVC028 M02/M03 A2996 RMK AO2 P0001 FZRANO RVRNO
KEUL 241827Z AUTO 10014KT 1 1/4SM -SN BR SCT021 OVC027 M02/M03 A2996 RMK AO2 P0000 FZRANO
KEUL 241808Z AUTO 09013G19KT 2SM -SN BR BKN016 OVC023 M02/M03 A2997 RMK AO2 P0000 FZRANO
KEUL 241756Z AUTO 09013KT 1 1/4SM -SN BR OVC014 M02/M03 A2997 RMK AO2 SLP172 P0000 60000 T10171033 11017 21028 58022 FZRANO
KEUL 241744Z AUTO 09013KT 1 1/4SM -SN BR FEW007 OVC012 M02/M03 A2998 RMK AO2 P0000 FZRANO
KEUL 241730Z AUTO 09011KT 1SM -SN BR OVC012 M02/M03 A2998 RMK AO2 P0000 FZRANO RVRNO
KEUL 241707Z AUTO 09012KT 2SM -SN BR SCT008 OVC014 M02/M03 A2999 RMK AO2 P0000 FZRANO
KEUL 241656Z AUTO 09011KT 1 1/4SM -SN BR BKN008 OVC014 M02/M04 A3000 RMK AO2 CIG 006V012 SLP180 P0000 T10221039 FZRANO
KEUL 241650Z AUTO 10012KT 1SM -SN BR SCT008 OVC011 M03/M04 A3000 RMK AO2 P0000 FZRANO RVRNO
KEUL 241638Z AUTO 10011KT 3/4SM -SN BR BKN008 OVC012 M03/M04 A3001 RMK AO2 CIG 006V010 P0000 FZRANO RVRNO
KEUL 241634Z AUTO 10011KT 1SM -SN BR BKN010 OVC016 M02/M04 A3001 RMK AO2 CIG 006V013 P0000 FZRANO RVRNO
KEUL 241625Z AUTO 11011KT 2 1/2SM -SN BR BKN014 BKN021 OVC026 M02/M04 A3002 RMK AO2 VIS 1 1/2V5 P0000 FZRANO
KEUL 241614Z AUTO 12011KT 9SM -SN SCT016 BKN021 OVC034 M02/M05 A3003 RMK AO2 P0000 FZRANO
KEUL 241556Z AUTO 11011KT 9SM -SN BKN030 BKN037 OVC048 M02/M05 A3003 RMK AO2 SNE12B51 SLP191 P0000 T10221050 FZRANO
KEUL 241456Z AUTO 10013KT 8SM -SN SCT027 OVC036 M02/M06 A3004 RMK AO2 SNB01E15B46 SLP196 P0000 60000 T10221061 58026 FZRANO
KEUL 241356Z AUTO 10012KT 10SM SCT036 BKN048 OVC060 M02/M08 A3008 RMK AO2 SNE28 SLP207 P0000 T10221083 FZRANO
KEUL 241256Z AUTO 11012KT 9SM -SN FEW029 SCT050 OVC090 M03/M08 A3010 RMK AO2 SNB20 SLP216 P0000 T10281083 FZRANO
KEUL 241156Z AUTO 11007KT 10SM BKN050 OVC095 M03/M08 A3013 RMK AO2 SLP223 T10281083 11011 21033 58024 FZRANO
KEUL 241056Z AUTO 10006KT 10SM BKN050 OVC070 M03/M08 A3016 RMK AO2 SLP233 T10281078 FZRANO
KEUL 240956Z AUTO 11006KT 10SM OVC060 M03/M08 A3018 RMK AO2 SLP243 T10281078 FZRANO
KEUL 240856Z AUTO 08004KT 10SM BKN060 OVC075 M03/M08 A3020 RMK AO2 SLP251 T10281078 56012 FZRANO
KEUL 240756Z AUTO 08005KT 10SM OVC070 M03/M07 A3022 RMK AO2 SLP258 T10281072 FZRANO
KEUL 240656Z AUTO 10004KT 10SM OVC080 M03/M08 A3022 RMK AO2 SLP260 T10281083 400171089 FZRANO
KEUL 240556Z AUTO 19003KT 10SM BKN100 M01/M11 A3024 RMK AO2 SLP266 T10111106 10006 21017 58010 FZRANO
KEUL 240456Z AUTO 17004KT 10SM OVC095 M01/M10 A3025 RMK AO2 SLP271 T10111100 FZRANO
KEUL 240356Z AUTO 21006KT 10SM BKN100 M01/M11 A3026 RMK AO2 SLP277 T10111106 FZRANO